Time;durP1;ratioP1;P1;durP2;ratioP2;P2;SDS_P1;SDS_P2;PMS_P1;PMS_P2;Temp;Humidity;BMP_temperature;BMP_pressure;BME280_temperature;BME280_humidity;BME280_pressure;Samples;Min_cycle;Max_cycle;Signal;HPM_P1;HPM_P2
2022/07/03 00:01:57;;;;;;;;;;;20.40;90.30;;;;;;4946327;28;20038;-75
2022/07/03 00:04:24;;;;;;;;;;;20.40;90.30;;;;;;4953520;28;19930;-75
2022/07/03 00:06:53;;;;;;;;;;;20.30;90.30;;;;;;4948654;28;19981;-74
2022/07/03 00:09:20;;;;;;;;;;;20.30;90.30;;;;;;4954594;28;19933;-76
2022/07/03 00:11:47;;;;;;;;;;;20.20;90.30;;;;;;4950408;28;19936;-75
2022/07/03 00:14:14;;;;;;;;;;;20.20;90.30;;;;;;4953596;28;19988;-75
2022/07/03 00:16:40;;;;;;;;;;;20.20;90.30;;;;;;4950828;28;19931;-75
2022/07/03 00:19:08;;;;;;;;;;;20.20;90.40;;;;;;4934562;28;19926;-75
2022/07/03 00:21:35;;;;;;;;;;;20.10;90.30;;;;;;4948954;28;19958;-76
2022/07/03 00:24:06;;;;;;;;;;;20.10;90.40;;;;;;4958323;28;19982;-75
2022/07/03 00:26:34;;;;;;;;;;;20.10;90.40;;;;;;4947922;28;19968;-75
2022/07/03 00:29:02;;;;;;;;;;;20.00;90.30;;;;;;4954990;28;19933;-75
2022/07/03 00:31:29;;;;;;;;;;;20.00;90.30;;;;;;4941986;29;20036;-75
2022/07/03 00:33:57;;;;;;;;;;;19.90;90.30;;;;;;4939284;28;20227;-76
2022/07/03 00:36:24;;;;;;;;;;;19.90;90.30;;;;;;4934630;29;19969;-75
2022/07/03 00:38:51;;;;;;;;;;;19.90;90.40;;;;;;4957454;28;19937;-75
2022/07/03 00:41:29;;;;;;;;;;;19.80;90.30;;;;;;4953267;28;20386;-76
2022/07/03 00:43:56;;;;;;;;;;;19.80;90.30;;;;;;4948302;28;19985;-75
2022/07/03 00:46:24;;;;;;;;;;;19.80;90.40;;;;;;4951659;28;19930;-75
2022/07/03 00:48:51;;;;;;;;;;;19.80;90.40;;;;;;4933535;28;19930;-75
2022/07/03 00:51:21;;;;;;;;;;;19.70;90.40;;;;;;4940777;28;19981;-75
2022/07/03 00:53:50;;;;;;;;;;;19.70;90.40;;;;;;4944836;28;20017;-75
2022/07/03 00:56:17;;;;;;;;;;;19.70;90.40;;;;;;4948049;28;19934;-75
2022/07/03 00:58:50;;;;;;;;;;;19.60;90.40;;;;;;4938355;28;20018;-75
2022/07/03 01:01:19;;;;;;;;;;;19.60;90.40;;;;;;4945645;28;19934;-75
2022/07/03 01:03:46;;;;;;;;;;;19.60;90.50;;;;;;4945657;28;19934;-75
2022/07/03 01:06:15;;;;;;;;;;;19.50;90.50;;;;;;4948960;28;20013;-74
2022/07/03 01:08:43;;;;;;;;;;;19.50;90.50;;;;;;4951536;28;19942;-75
2022/07/03 01:11:14;;;;;;;;;;;19.50;90.50;;;;;;4946180;28;20432;-75
2022/07/03 01:13:44;;;;;;;;;;;19.50;90.50;;;;;;4951979;28;19931;-75
2022/07/03 01:16:17;;;;;;;;;;;19.40;90.50;;;;;;4948885;28;19934;-74
2022/07/03 01:18:46;;;;;;;;;;;19.40;90.50;;;;;;4947673;28;19931;-75
2022/07/03 01:21:19;;;;;;;;;;;19.40;90.50;;;;;;4950825;28;19965;-75
2022/07/03 01:24:04;;;;;;;;;;;19.30;90.50;;;;;;4952663;28;19962;-75
2022/07/03 01:26:36;;;;;;;;;;;19.30;90.50;;;;;;4927212;28;19941;-74
2022/07/03 01:29:04;;;;;;;;;;;19.30;90.60;;;;;;4947831;28;20399;-75
2022/07/03 01:31:32;;;;;;;;;;;19.30;90.60;;;;;;4950726;28;19933;-76
2022/07/03 01:33:59;;;;;;;;;;;19.20;90.60;;;;;;4956580;28;19930;-75
2022/07/03 01:36:29;;;;;;;;;;;19.20;90.60;;;;;;4948646;28;19973;-74
2022/07/03 01:38:56;;;;;;;;;;;19.20;90.70;;;;;;4943974;28;20378;-75
2022/07/03 01:41:25;;;;;;;;;;;19.10;90.70;;;;;;4947991;28;20030;-76
2022/07/03 01:43:57;;;;;;;;;;;19.10;90.70;;;;;;4951325;28;21725;-75
2022/07/03 01:46:28;;;;;;;;;;;19.10;90.80;;;;;;4948286;28;19982;-76
2022/07/03 01:48:55;;;;;;;;;;;19.10;90.80;;;;;;4932554;28;19934;-76
2022/07/03 01:51:23;;;;;;;;;;;19.00;90.80;;;;;;4949576;28;20621;-76
2022/07/03 01:53:51;;;;;;;;;;;19.00;90.80;;;;;;4945231;28;19973;-75
2022/07/03 01:56:18;;;;;;;;;;;19.00;90.80;;;;;;4947802;28;19982;-75
2022/07/03 01:58:45;;;;;;;;;;;19.00;90.90;;;;;;4949154;28;19935;-75
2022/07/03 02:01:20;;;;;;;;;;;18.90;90.90;;;;;;4948186;28;19957;-75
2022/07/03 02:03:49;;;;;;;;;;;18.90;90.90;;;;;;4949931;28;20349;-75
2022/07/03 02:06:21;;;;;;;;;;;18.90;90.90;;;;;;4943118;28;20556;-74
2022/07/03 02:08:51;;;;;;;;;;;18.80;90.90;;;;;;4948965;28;20415;-75
2022/07/03 02:11:19;;;;;;;;;;;18.80;90.90;;;;;;4950012;28;20069;-76
2022/07/03 02:13:51;;;;;;;;;;;18.80;91.00;;;;;;4949352;28;19934;-75
2022/07/03 02:16:20;;;;;;;;;;;18.80;91.00;;;;;;4945371;28;20002;-75
2022/07/03 02:18:50;;;;;;;;;;;18.70;91.00;;;;;;4945418;28;20279;-76
2022/07/03 02:21:19;;;;;;;;;;;18.70;91.00;;;;;;4945320;28;20383;-75
2022/07/03 02:23:54;;;;;;;;;;;18.70;91.00;;;;;;4955071;28;19981;-75
2022/07/03 02:26:26;;;;;;;;;;;18.70;91.10;;;;;;4934120;28;19927;-75
2022/07/03 02:28:57;;;;;;;;;;;18.60;91.10;;;;;;4948728;28;20432;-76
2022/07/03 02:33:56;;;;;;;;;;;18.60;91.10;;;;;;4929727;23;20755;-76
2022/07/03 02:36:24;;;;;;;;;;;18.60;91.20;;;;;;4925719;29;19927;-76
2022/07/03 02:38:54;;;;;;;;;;;18.50;91.20;;;;;;4901989;29;19927;-76
2022/07/03 02:41:24;;;;;;;;;;;18.50;91.20;;;;;;4908456;29;20394;-76
2022/07/03 02:43:56;;;;;;;;;;;18.50;91.20;;;;;;4907203;29;19927;-76
2022/07/03 02:46:50;;;;;;;;;;;18.50;91.20;;;;;;4909879;29;19978;-75
2022/07/03 02:49:43;;;;;;;;;;;18.40;91.20;;;;;;4904530;29;19982;-76
2022/07/03 02:52:13;;;;;;;;;;;18.40;91.20;;;;;;4911457;29;20436;-76
2022/07/03 02:54:43;;;;;;;;;;;18.40;91.30;;;;;;4895150;29;20306;-75
2022/07/03 02:57:09;;;;;;;;;;;18.30;91.30;;;;;;4907231;29;20038;-77
2022/07/03 02:59:44;;;;;;;;;;;18.30;94.20;;;;;;4897029;29;19966;-75
2022/07/03 03:02:15;;;;;;;;;;;18.30;93.30;;;;;;4907891;29;19942;-76
2022/07/03 03:04:42;;;;;;;;;;;;;;;;;;4906227;29;19958;-77
2022/07/03 03:07:14;;;;;;;;;;;18.30;91.10;;;;;;4906331;29;19927;-75
2022/07/03 03:09:42;;;;;;;;;;;18.20;91.30;;;;;;4909094;29;19927;-76
2022/07/03 03:12:09;;;;;;;;;;;18.20;91.40;;;;;;4906749;29;19977;-75
2022/07/03 03:14:39;;;;;;;;;;;18.20;91.40;;;;;;4909165;29;19979;-77
2022/07/03 03:17:07;;;;;;;;;;;18.20;91.40;;;;;;4905052;29;19933;-77
2022/07/03 03:19:37;;;;;;;;;;;18.20;91.40;;;;;;4910271;29;20299;-76
2022/07/03 03:22:08;;;;;;;;;;;18.10;91.40;;;;;;4906587;29;19940;-76
2022/07/03 03:24:36;;;;;;;;;;;18.10;91.40;;;;;;4905799;29;19932;-76
2022/07/03 03:27:03;;;;;;;;;;;18.10;91.50;;;;;;4909578;29;19935;-75
2022/07/03 03:29:30;;;;;;;;;;;18.00;91.40;;;;;;4908655;29;19931;-77
2022/07/03 03:31:57;;;;;;;;;;;18.10;91.50;;;;;;4908324;29;20659;-75
2022/07/03 03:34:25;;;;;;;;;;;18.00;91.50;;;;;;4909467;29;19927;-76
2022/07/03 03:36:52;;;;;;;;;;;18.00;91.50;;;;;;4905644;29;20021;-76
2022/07/03 03:39:18;;;;;;;;;;;17.90;91.50;;;;;;4908138;29;19934;-76
2022/07/03 03:41:47;;;;;;;;;;;17.90;91.50;;;;;;4908342;29;19939;-75
2022/07/03 03:44:14;;;;;;;;;;;17.90;91.60;;;;;;4904222;29;19931;-76
2022/07/03 03:46:40;;;;;;;;;;;17.90;91.60;;;;;;4912932;29;19927;-75
2022/07/03 03:49:07;;;;;;;;;;;17.90;91.60;;;;;;4910954;29;20618;-76
2022/07/03 03:51:34;;;;;;;;;;;17.80;91.50;;;;;;4907076;29;19927;-76
2022/07/03 03:54:03;;;;;;;;;;;17.80;91.50;;;;;;4904034;29;20318;-76
2022/07/03 03:56:30;;;;;;;;;;;17.80;91.60;;;;;;4907904;29;19966;-77
2022/07/03 03:58:58;;;;;;;;;;;17.80;91.60;;;;;;4910241;29;20002;-76
2022/07/03 04:01:25;;;;;;;;;;;17.70;91.60;;;;;;4904797;29;19995;-75
2022/07/03 04:03:52;;;;;;;;;;;17.70;91.60;;;;;;4908389;29;20470;-76
2022/07/03 04:06:20;;;;;;;;;;;17.70;91.60;;;;;;4911667;29;19958;-76
2022/07/03 04:08:46;;;;;;;;;;;17.70;91.60;;;;;;4908652;29;19942;-76
2022/07/03 04:11:13;;;;;;;;;;;17.70;91.70;;;;;;4897054;29;19931;-76
2022/07/03 04:13:40;;;;;;;;;;;17.60;91.70;;;;;;4907703;29;20021;-76
2022/07/03 04:16:08;;;;;;;;;;;17.70;91.70;;;;;;4911648;29;19927;-75
2022/07/03 04:18:35;;;;;;;;;;;17.60;91.70;;;;;;4912404;29;20615;-75
2022/07/03 04:21:02;;;;;;;;;;;17.60;91.70;;;;;;4909194;29;19982;-76
2022/07/03 04:23:29;;;;;;;;;;;17.60;91.70;;;;;;4904154;29;19935;-75
2022/07/03 04:25:55;;;;;;;;;;;17.60;91.80;;;;;;4912727;29;19931;-77
2022/07/03 04:28:22;;;;;;;;;;;17.60;91.80;;;;;;4907778;29;20421;-75
2022/07/03 04:30:49;;;;;;;;;;;17.50;91.80;;;;;;4909268;29;20022;-76
2022/07/03 04:33:17;;;;;;;;;;;17.50;91.80;;;;;;4920538;29;19935;-76
2022/07/03 04:35:44;;;;;;;;;;;17.50;91.80;;;;;;4911499;29;20009;-77
2022/07/03 04:38:11;;;;;;;;;;;17.50;91.80;;;;;;4908814;29;19942;-76
2022/07/03 04:40:38;;;;;;;;;;;17.50;91.80;;;;;;4914770;29;19945;-75
2022/07/03 04:43:05;;;;;;;;;;;17.40;91.70;;;;;;4911838;29;19931;-75
2022/07/03 04:45:32;;;;;;;;;;;17.40;91.60;;;;;;4910586;29;19927;-76
2022/07/03 04:47:58;;;;;;;;;;;17.40;91.60;;;;;;4911559;29;19963;-76
2022/07/03 04:50:27;;;;;;;;;;;17.40;91.50;;;;;;4913303;29;19931;-75
2022/07/03 04:52:53;;;;;;;;;;;17.40;91.50;;;;;;4907833;29;19934;-76
2022/07/03 04:55:20;;;;;;;;;;;17.30;91.30;;;;;;4898278;29;20052;-76
2022/07/03 04:57:47;;;;;;;;;;;17.30;91.10;;;;;;4908355;29;20295;-75
2022/07/03 05:00:14;;;;;;;;;;;17.10;91.30;;;;;;4911283;29;19966;-77
2022/07/03 05:02:41;;;;;;;;;;;17.00;91.90;;;;;;4909597;29;19927;-76
2022/07/03 05:05:08;;;;;;;;;;;16.90;92.30;;;;;;4911166;29;19981;-77
2022/07/03 05:07:36;;;;;;;;;;;16.80;92.50;;;;;;4913028;29;19931;-74
2022/07/03 05:10:03;;;;;;;;;;;16.90;92.70;;;;;;4911717;29;19958;-75
2022/07/03 05:12:30;;;;;;;;;;;16.80;92.80;;;;;;4906786;29;19935;-75
2022/07/03 05:14:57;;;;;;;;;;;16.90;92.80;;;;;;4911458;29;19935;-75
2022/07/03 05:17:24;;;;;;;;;;;16.80;92.90;;;;;;4916515;29;19937;-75
2022/07/03 05:20:23;;;;;;;;;;;16.90;93.00;;;;;;4914221;29;19938;-75
2022/07/03 05:22:40;;;;;;;;;;;16.90;92.90;;;;;;4905221;29;19934;-77
2022/07/03 05:25:07;;;;;;;;;;;16.90;93.20;;;;;;4910105;29;19935;-76
2022/07/03 05:27:36;;;;;;;;;;;16.90;93.00;;;;;;4914190;29;19935;-75
2022/07/03 05:30:03;;;;;;;;;;;17.00;93.10;;;;;;4895747;29;19935;-75
2022/07/03 05:32:30;;;;;;;;;;;17.00;93.20;;;;;;4910998;29;19934;-75
2022/07/03 05:34:56;;;;;;;;;;;17.00;93.10;;;;;;4908039;29;19958;-75
2022/07/03 05:37:23;;;;;;;;;;;17.10;93.20;;;;;;4911135;29;19942;-76
2022/07/03 05:39:51;;;;;;;;;;;17.10;93.10;;;;;;4909016;29;20353;-76
2022/07/03 05:42:18;;;;;;;;;;;17.10;93.20;;;;;;4908564;29;20021;-76
2022/07/03 05:44:45;;;;;;;;;;;17.10;93.20;;;;;;4898260;29;19927;-75
2022/07/03 05:47:12;;;;;;;;;;;17.20;93.20;;;;;;4911345;29;20018;-76
2022/07/03 05:49:38;;;;;;;;;;;17.20;93.30;;;;;;4910959;29;19935;-75
2022/07/03 05:52:05;;;;;;;;;;;17.20;93.30;;;;;;4911819;29;19934;-75
2022/07/03 05:54:32;;;;;;;;;;;17.30;93.40;;;;;;4913000;29;19949;-75
2022/07/03 05:57:00;;;;;;;;;;;17.30;93.40;;;;;;4909128;29;19931;-75
2022/07/03 05:59:27;;;;;;;;;;;17.40;93.50;;;;;;4911954;29;20295;-75
2022/07/03 06:01:54;;;;;;;;;;;17.40;93.40;;;;;;4916162;29;20398;-76
2022/07/03 06:04:21;;;;;;;;;;;17.40;93.40;;;;;;4911917;29;19935;-76
2022/07/03 06:06:48;;;;;;;;;;;17.40;93.40;;;;;;4907390;29;19927;-75
2022/07/03 06:09:15;;;;;;;;;;;17.50;93.50;;;;;;4915800;29;20006;-75
2022/07/03 06:11:41;;;;;;;;;;;17.50;93.70;;;;;;4912896;29;19931;-76
2022/07/03 06:14:10;;;;;;;;;;;17.50;93.50;;;;;;4911060;29;19930;-77
2022/07/03 06:16:36;;;;;;;;;;;17.50;93.60;;;;;;4904352;29;19980;-76
2022/07/03 06:19:03;;;;;;;;;;;17.50;93.70;;;;;;4914132;29;19951;-75
2022/07/03 06:21:30;;;;;;;;;;;17.50;93.80;;;;;;4912669;29;19935;-76
2022/07/03 06:23:57;;;;;;;;;;;17.60;93.90;;;;;;4897782;29;20358;-75
2022/07/03 06:26:24;;;;;;;;;;;17.50;93.90;;;;;;4908405;29;19927;-76
2022/07/03 06:28:51;;;;;;;;;;;17.60;94.00;;;;;;4903150;29;20015;-75
2022/07/03 06:31:20;;;;;;;;;;;17.60;94.10;;;;;;4897604;29;20026;-75
2022/07/03 06:33:46;;;;;;;;;;;17.60;94.10;;;;;;4893312;29;19931;-75
2022/07/03 06:36:13;;;;;;;;;;;17.70;94.30;;;;;;4904137;29;19966;-76
2022/07/03 06:38:40;;;;;;;;;;;17.70;96.30;;;;;;4911446;29;19970;-77
2022/07/03 06:41:07;;;;;;;;;;;17.80;96.00;;;;;;4910173;29;19931;-77
2022/07/03 06:43:34;;;;;;;;;;;17.80;95.60;;;;;;4908940;29;19947;-77
2022/07/03 06:46:01;;;;;;;;;;;17.80;97.20;;;;;;4903915;29;19927;-77
2022/07/03 06:48:31;;;;;;;;;;;17.90;97.20;;;;;;4908120;29;20593;-77
2022/07/03 06:50:58;;;;;;;;;;;17.90;97.60;;;;;;4910286;29;20534;-76
2022/07/03 06:53:25;;;;;;;;;;;17.90;97.60;;;;;;4906107;29;20003;-77
2022/07/03 06:55:52;;;;;;;;;;;17.90;97.90;;;;;;4911684;29;19938;-76
2022/07/03 06:58:19;;;;;;;;;;;18.10;98.80;;;;;;4908160;29;19975;-78
2022/07/03 07:00:46;;;;;;;;;;;18.10;99.20;;;;;;4910310;29;20023;-77
2022/07/03 07:03:13;;;;;;;;;;;18.20;99.00;;;;;;4904009;29;19954;-76
2022/07/03 07:05:41;;;;;;;;;;;18.20;98.60;;;;;;4903335;29;19943;-77
2022/07/03 07:08:08;;;;;;;;;;;18.20;99.00;;;;;;4907567;29;19927;-77
2022/07/03 07:10:35;;;;;;;;;;;18.30;99.30;;;;;;4911997;29;20318;-77
2022/07/03 07:13:02;;;;;;;;;;;18.30;99.50;;;;;;4909367;29;20386;-77
2022/07/03 07:15:29;;;;;;;;;;;18.40;99.90;;;;;;4977419;23;20029;-79
2022/07/03 07:17:57;;;;;;;;;;;18.40;99.90;;;;;;4933670;29;20358;-79
2022/07/03 07:20:26;;;;;;;;;;;18.40;99.90;;;;;;4934114;29;19937;-77
2022/07/03 07:22:55;;;;;;;;;;;18.40;99.90;;;;;;4928245;29;19931;-78
2022/07/03 07:25:29;;;;;;;;;;;18.60;99.90;;;;;;4931332;29;19954;-79
2022/07/03 07:30:46;;;;;;;;;;;18.70;99.90;;;;;;4929978;29;19934;-79
2022/07/03 07:33:15;;;;;;;;;;;18.70;99.90;;;;;;4929307;29;19926;-79
2022/07/03 07:35:43;;;;;;;;;;;18.70;99.90;;;;;;4929472;29;19927;-79
2022/07/03 07:38:15;;;;;;;;;;;18.80;99.90;;;;;;4931061;29;19975;-78
2022/07/03 07:40:45;;;;;;;;;;;18.90;99.90;;;;;;4927879;29;19977;-79
2022/07/03 07:43:12;;;;;;;;;;;18.90;99.90;;;;;;4922951;29;19998;-78
2022/07/03 07:45:38;;;;;;;;;;;19.00;99.90;;;;;;4923268;28;19933;-76
2022/07/03 07:48:06;;;;;;;;;;;19.10;99.90;;;;;;4927564;29;19926;-76
2022/07/03 07:50:33;;;;;;;;;;;19.20;99.90;;;;;;4921708;29;19926;-75
2022/07/03 07:52:59;;;;;;;;;;;19.30;99.90;;;;;;4923060;29;20014;-75
2022/07/03 07:55:27;;;;;;;;;;;19.40;99.90;;;;;;4928916;29;19986;-75
2022/07/03 07:57:54;;;;;;;;;;;19.40;99.90;;;;;;4909000;29;19930;-75
2022/07/03 08:00:22;;;;;;;;;;;19.30;99.90;;;;;;4933507;29;19938;-75
2022/07/03 08:05:41;;;;;;;;;;;19.20;99.90;;;;;;4904382;29;19942;-75
2022/07/03 08:08:09;;;;;;;;;;;19.20;99.90;;;;;;4934286;29;20357;-75
2022/07/03 08:10:39;;;;;;;;;;;19.20;99.90;;;;;;4936219;29;19926;-75
2022/07/03 08:13:06;;;;;;;;;;;19.20;99.90;;;;;;4931091;29;19938;-74
2022/07/03 08:15:33;;;;;;;;;;;19.20;99.90;;;;;;4931378;29;20699;-75
2022/07/03 08:18:00;;;;;;;;;;;19.20;99.90;;;;;;4932414;29;19926;-75
2022/07/03 08:20:27;;;;;;;;;;;19.20;99.80;;;;;;4930665;29;19927;-75
2022/07/03 08:22:54;;;;;;;;;;;19.20;99.70;;;;;;4942499;29;19982;-75
2022/07/03 08:25:21;;;;;;;;;;;19.20;99.60;;;;;;4928011;29;19927;-75
2022/07/03 08:27:49;;;;;;;;;;;19.20;99.50;;;;;;4932597;29;19927;-74
2022/07/03 08:30:17;;;;;;;;;;;19.20;99.40;;;;;;4931339;29;19927;-75
2022/07/03 08:32:44;;;;;;;;;;;19.20;99.30;;;;;;4928346;29;19927;-75
2022/07/03 08:35:11;;;;;;;;;;;19.20;99.30;;;;;;4936523;29;19926;-75
2022/07/03 08:37:40;;;;;;;;;;;19.20;99.30;;;;;;4930423;29;19934;-75
2022/07/03 08:40:08;;;;;;;;;;;19.30;99.20;;;;;;4935170;29;19989;-75
2022/07/03 08:42:41;;;;;;;;;;;19.20;99.10;;;;;;4920775;29;20385;-74
2022/07/03 08:45:14;;;;;;;;;;;19.30;99.00;;;;;;4927892;29;19930;-75
2022/07/03 08:47:41;;;;;;;;;;;19.30;98.90;;;;;;4907351;29;19927;-74
2022/07/03 08:50:08;;;;;;;;;;;19.30;98.80;;;;;;4925092;29;19969;-75
2022/07/03 08:52:35;;;;;;;;;;;19.30;98.80;;;;;;4927754;29;19966;-74
2022/07/03 08:55:03;;;;;;;;;;;19.30;98.70;;;;;;4929128;29;19945;-75
2022/07/03 08:57:31;;;;;;;;;;;19.30;98.60;;;;;;4925419;29;20382;-74
2022/07/03 08:59:59;;;;;;;;;;;19.30;98.50;;;;;;4928651;29;19927;-75
2022/07/03 09:02:28;;;;;;;;;;;19.40;98.50;;;;;;4929152;29;19930;-75
2022/07/03 09:04:56;;;;;;;;;;;19.40;98.40;;;;;;4927722;29;20021;-76
2022/07/03 09:07:24;;;;;;;;;;;19.40;98.40;;;;;;4927776;29;20022;-76
2022/07/03 09:09:51;;;;;;;;;;;19.40;98.30;;;;;;4929293;29;19931;-75
2022/07/03 09:12:20;;;;;;;;;;;19.40;98.20;;;;;;4907304;29;19943;-75
2022/07/03 09:14:47;;;;;;;;;;;19.40;98.20;;;;;;4923623;29;20309;-75
2022/07/03 09:17:13;;;;;;;;;;;19.40;97.90;;;;;;4929391;29;19930;-75
2022/07/03 09:19:43;;;;;;;;;;;19.40;97.80;;;;;;4934882;29;20457;-75
2022/07/03 09:22:15;;;;;;;;;;;19.50;97.80;;;;;;4913384;29;19966;-76
2022/07/03 09:24:42;;;;;;;;;;;19.40;97.60;;;;;;4929617;29;19934;-75
2022/07/03 09:27:11;;;;;;;;;;;19.50;97.60;;;;;;4933413;29;19927;-76
2022/07/03 09:29:38;;;;;;;;;;;19.50;97.60;;;;;;4941604;29;19956;-76
2022/07/03 09:32:05;;;;;;;;;;;19.50;97.60;;;;;;4912083;29;19934;-75
2022/07/03 09:34:32;;;;;;;;;;;19.50;97.50;;;;;;4935788;29;19935;-75
2022/07/03 09:37:00;;;;;;;;;;;19.50;97.50;;;;;;4926225;29;19933;-75
2022/07/03 09:39:29;;;;;;;;;;;19.50;97.40;;;;;;4930982;29;19975;-75
2022/07/03 09:42:00;;;;;;;;;;;19.50;97.40;;;;;;4930732;29;19927;-74
2022/07/03 09:44:34;;;;;;;;;;;19.50;97.30;;;;;;4938039;29;19926;-74
2022/07/03 09:47:11;;;;;;;;;;;19.60;97.00;;;;;;4938298;29;19926;-74
2022/07/03 09:49:49;;;;;;;;;;;19.60;97.00;;;;;;4928348;29;19974;-76
2022/07/03 09:52:31;;;;;;;;;;;19.60;96.90;;;;;;4935064;29;20018;-76
2022/07/03 09:54:59;;;;;;;;;;;19.60;97.00;;;;;;4932738;29;19927;-75
2022/07/03 09:57:28;;;;;;;;;;;19.60;96.90;;;;;;4930295;29;20303;-76
2022/07/03 10:00:09;;;;;;;;;;;19.60;96.90;;;;;;4935396;29;19927;-75
2022/07/03 10:02:52;;;;;;;;;;;19.60;96.90;;;;;;4932675;29;19934;-75
2022/07/03 10:05:19;;;;;;;;;;;19.60;96.90;;;;;;4939714;29;19927;-75
2022/07/03 10:07:53;;;;;;;;;;;19.60;96.50;;;;;;4927103;29;19927;-74
2022/07/03 10:10:22;;;;;;;;;;;19.60;96.60;;;;;;4929327;29;19958;-76
2022/07/03 10:12:49;;;;;;;;;;;19.70;96.70;;;;;;4934982;29;19958;-75
2022/07/03 10:15:16;;;;;;;;;;;19.70;96.80;;;;;;4932712;29;19956;-75
2022/07/03 10:17:44;;;;;;;;;;;19.70;96.80;;;;;;4938998;29;19927;-75
2022/07/03 10:20:13;;;;;;;;;;;19.70;96.70;;;;;;4932224;29;19926;-76
2022/07/03 10:22:42;;;;;;;;;;;19.70;96.70;;;;;;4935418;29;20529;-75
2022/07/03 10:25:09;;;;;;;;;;;19.80;96.70;;;;;;4922132;29;20297;-76
2022/07/03 10:27:38;;;;;;;;;;;19.80;96.70;;;;;;4931804;29;20318;-75
2022/07/03 10:30:05;;;;;;;;;;;19.80;96.70;;;;;;4936107;28;19972;-76
2022/07/03 10:32:33;;;;;;;;;;;19.80;96.70;;;;;;4930589;28;19945;-75
2022/07/03 10:35:01;;;;;;;;;;;19.80;96.70;;;;;;4926462;29;19927;-76
2022/07/03 10:37:29;;;;;;;;;;;19.90;96.80;;;;;;4922842;29;19933;-75
2022/07/03 10:44:45;;;;;;;;;;;19.90;97.00;;;;;;4933425;29;20021;-75
2022/07/03 10:45:33;;;;;;;;;;;19.90;96.70;;;;;;4929745;29;20495;-76
2022/07/03 10:48:00;;;;;;;;;;;19.90;96.70;;;;;;4935757;29;19933;-75
2022/07/03 10:50:29;;;;;;;;;;;19.90;96.60;;;;;;4931790;29;20311;-75
2022/07/03 10:53:16;;;;;;;;;;;19.90;96.50;;;;;;4932567;29;19931;-75
2022/07/03 10:56:02;;;;;;;;;;;20.00;96.50;;;;;;4930983;29;19927;-76
2022/07/03 10:58:30;;;;;;;;;;;20.00;96.50;;;;;;4934334;29;19934;-75
2022/07/03 11:00:58;;;;;;;;;;;20.00;96.60;;;;;;4926519;29;19929;-76
2022/07/03 11:03:43;;;;;;;;;;;20.10;96.60;;;;;;4927539;29;19933;-76
2022/07/03 11:06:10;;;;;;;;;;;20.10;96.60;;;;;;4928836;29;20365;-76
2022/07/03 11:09:01;;;;;;;;;;;20.10;96.50;;;;;;4930608;29;20417;-74
2022/07/03 11:14:20;;;;;;;;;;;20.10;96.50;;;;;;4933165;29;19930;-75
2022/07/03 11:16:47;;;;;;;;;;;20.20;96.50;;;;;;4931639;29;20010;-75
2022/07/03 11:19:14;;;;;;;;;;;20.20;96.50;;;;;;4933641;29;19937;-75
2022/07/03 11:21:43;;;;;;;;;;;20.20;96.50;;;;;;4928457;29;19948;-75
2022/07/03 11:24:18;;;;;;;;;;;20.20;96.50;;;;;;4934308;29;19930;-75
2022/07/03 11:26:45;;;;;;;;;;;20.30;96.50;;;;;;4928585;29;21052;-75
2022/07/03 11:29:33;;;;;;;;;;;20.30;96.50;;;;;;4910809;29;20405;-74
2022/07/03 11:32:22;;;;;;;;;;;20.30;96.50;;;;;;4924288;29;19927;-74
2022/07/03 11:34:49;;;;;;;;;;;20.40;96.60;;;;;;4928067;29;19991;-75
2022/07/03 11:37:20;;;;;;;;;;;20.40;96.60;;;;;;4925182;29;20476;-75
2022/07/03 11:39:49;;;;;;;;;;;20.40;96.50;;;;;;4931660;29;19934;-74
2022/07/03 11:42:17;;;;;;;;;;;20.40;96.50;;;;;;4911827;29;19927;-75
2022/07/03 11:44:44;;;;;;;;;;;20.50;96.40;;;;;;4930285;29;19986;-74
2022/07/03 11:47:14;;;;;;;;;;;20.50;96.50;;;;;;4926880;29;19935;-74
2022/07/03 11:49:48;;;;;;;;;;;20.50;96.50;;;;;;4935603;29;19966;-75
2022/07/03 11:52:31;;;;;;;;;;;20.50;96.20;;;;;;4928245;29;19982;-75
2022/07/03 11:54:58;;;;;;;;;;;20.60;95.90;;;;;;4927108;29;20026;-75
2022/07/03 11:57:26;;;;;;;;;;;20.60;95.90;;;;;;4911441;29;20330;-75
2022/07/03 11:59:55;;;;;;;;;;;20.60;95.90;;;;;;4931059;29;20341;-75
2022/07/03 12:02:23;;;;;;;;;;;20.60;96.00;;;;;;4926154;29;19931;-75
2022/07/03 12:04:50;;;;;;;;;;;20.70;96.10;;;;;;4928419;29;19930;-75
2022/07/03 12:07:16;;;;;;;;;;;20.80;96.30;;;;;;4929466;29;19930;-74
2022/07/03 12:09:43;;;;;;;;;;;20.80;96.30;;;;;;4929376;29;19926;-75
2022/07/03 12:12:11;;;;;;;;;;;20.90;96.50;;;;;;4931068;29;19926;-75
2022/07/03 12:14:39;;;;;;;;;;;20.90;96.50;;;;;;4927884;29;19941;-75
2022/07/03 12:17:07;;;;;;;;;;;20.90;96.40;;;;;;4930347;29;20459;-74
2022/07/03 12:19:37;;;;;;;;;;;21.00;96.50;;;;;;4927184;29;19930;-75
2022/07/03 12:22:04;;;;;;;;;;;21.00;96.50;;;;;;4922609;29;19942;-75
2022/07/03 12:24:31;;;;;;;;;;;21.10;96.60;;;;;;4933890;29;20021;-75
2022/07/03 12:26:57;;;;;;;;;;;21.10;96.50;;;;;;4933083;29;19927;-75
2022/07/03 12:29:24;;;;;;;;;;;21.20;96.60;;;;;;4934874;29;20388;-75
2022/07/03 12:31:52;;;;;;;;;;;21.20;96.50;;;;;;4932455;29;19927;-75
2022/07/03 12:34:19;;;;;;;;;;;21.20;96.60;;;;;;4937421;29;19946;-75
2022/07/03 12:37:04;;;;;;;;;;;21.30;96.70;;;;;;4919196;29;19935;-76
2022/07/03 12:39:45;;;;;;;;;;;21.40;96.80;;;;;;4934044;28;19978;-76
2022/07/03 12:42:15;;;;;;;;;;;21.40;96.70;;;;;;4929701;29;19974;-75
2022/07/03 12:44:42;;;;;;;;;;;21.50;96.70;;;;;;4935031;29;20122;-76
2022/07/03 12:47:09;;;;;;;;;;;21.50;96.50;;;;;;4915072;29;20029;-76
2022/07/03 12:49:36;;;;;;;;;;;21.60;96.40;;;;;;4930008;29;19938;-75
2022/07/03 12:52:03;;;;;;;;;;;21.60;96.50;;;;;;4911095;29;20574;-75
2022/07/03 12:54:32;;;;;;;;;;;21.70;96.50;;;;;;4934886;29;19927;-76
2022/07/03 12:59:16;;;;;;;;;;;21.70;96.40;;;;;;4934726;29;19935;-75
2022/07/03 13:00:02;;;;;;;;;;;21.80;96.50;;;;;;4933609;29;20369;-77
2022/07/03 13:02:29;;;;;;;;;;;21.80;96.60;;;;;;4934599;29;19967;-77
2022/07/03 13:04:58;;;;;;;;;;;21.90;96.70;;;;;;4929054;29;19927;-77
2022/07/03 13:07:28;;;;;;;;;;;21.90;96.70;;;;;;4928807;29;20036;-76
2022/07/03 13:09:55;;;;;;;;;;;22.00;96.50;;;;;;4936646;29;19981;-76
2022/07/03 13:12:23;;;;;;;;;;;22.10;96.20;;;;;;4917299;29;19927;-75
2022/07/03 13:14:57;;;;;;;;;;;22.10;96.20;;;;;;4926936;29;19933;-77
2022/07/03 13:17:24;;;;;;;;;;;22.20;96.30;;;;;;4932322;29;19926;-75
2022/07/03 13:19:51;;;;;;;;;;;22.20;96.40;;;;;;4941227;29;19933;-76
2022/07/03 13:22:18;;;;;;;;;;;22.30;96.50;;;;;;4935283;29;19937;-76
2022/07/03 13:24:45;;;;;;;;;;;22.30;96.60;;;;;;4935612;29;19957;-76
2022/07/03 13:27:12;;;;;;;;;;;22.40;96.50;;;;;;4934918;29;20017;-76
2022/07/03 13:29:40;;;;;;;;;;;22.50;96.50;;;;;;4918562;29;20374;-76
2022/07/03 13:32:07;;;;;;;;;;;22.50;96.30;;;;;;4932670;29;19926;-75
2022/07/03 13:34:34;;;;;;;;;;;22.60;96.10;;;;;;4929039;29;20029;-75
2022/07/03 13:37:01;;;;;;;;;;;22.60;96.20;;;;;;4934856;29;19933;-75
2022/07/03 13:39:28;;;;;;;;;;;22.70;96.20;;;;;;4930304;29;19973;-76
2022/07/03 13:41:54;;;;;;;;;;;22.70;96.10;;;;;;4935273;29;19982;-76
2022/07/03 13:44:21;;;;;;;;;;;22.80;95.90;;;;;;4924472;29;20418;-76
2022/07/03 13:46:49;;;;;;;;;;;22.90;95.60;;;;;;4934572;29;19931;-76
2022/07/03 13:49:16;;;;;;;;;;;22.90;95.30;;;;;;4935196;29;19931;-75
2022/07/03 13:51:43;;;;;;;;;;;23.00;95.10;;;;;;4930989;29;19927;-76
2022/07/03 13:54:10;;;;;;;;;;;23.10;95.00;;;;;;4912180;29;20029;-75
2022/07/03 13:56:37;;;;;;;;;;;23.10;94.70;;;;;;4927158;29;19931;-76
2022/07/03 13:59:04;;;;;;;;;;;23.10;94.40;;;;;;4931131;29;20401;-75
2022/07/03 14:01:31;;;;;;;;;;;23.20;94.50;;;;;;4929333;29;20286;-75
2022/07/03 14:03:59;;;;;;;;;;;23.30;94.30;;;;;;4916722;29;19938;-75
2022/07/03 14:06:26;;;;;;;;;;;23.30;94.30;;;;;;4936136;29;19999;-76
2022/07/03 14:08:52;;;;;;;;;;;23.40;94.40;;;;;;4927965;29;19934;-76
2022/07/03 14:11:19;;;;;;;;;;;23.50;94.70;;;;;;4930716;29;19934;-75
2022/07/03 14:13:46;;;;;;;;;;;23.50;94.70;;;;;;4931715;29;19931;-76
2022/07/03 14:16:13;;;;;;;;;;;23.60;95.00;;;;;;4932986;29;19927;-75
2022/07/03 14:18:40;;;;;;;;;;;23.70;94.80;;;;;;4931810;29;20383;-76
2022/07/03 14:21:08;;;;;;;;;;;23.70;94.80;;;;;;4925916;29;19927;-75
2022/07/03 14:23:35;;;;;;;;;;;23.80;94.90;;;;;;4932847;29;19933;-75
2022/07/03 14:26:03;;;;;;;;;;;23.80;94.80;;;;;;4929396;29;19927;-75
2022/07/03 14:33:58;;;;;;;;;;;24.00;94.50;;;;;;4930051;29;19954;-76
2022/07/03 14:36:27;;;;;;;;;;;24.10;94.50;;;;;;4936813;29;20017;-75
2022/07/03 14:38:53;;;;;;;;;;;24.20;94.30;;;;;;4934416;29;19926;-76
2022/07/03 14:41:20;;;;;;;;;;;24.20;94.20;;;;;;4927922;29;20033;-76
2022/07/03 14:43:47;;;;;;;;;;;24.30;94.00;;;;;;4929833;29;19966;-75
2022/07/03 14:46:14;;;;;;;;;;;24.30;94.30;;;;;;4931684;29;20021;-75
2022/07/03 14:48:41;;;;;;;;;;;24.40;94.60;;;;;;4938884;28;19985;-76